Time;durP1;ratioP1;P1;durP2;ratioP2;P2;SDS_P1;SDS_P2;PMS_P1;PMS_P2;Temp;Humidity;BMP_temperature;BMP_pressure;BME280_temperature;BME280_humidity;BME280_pressure;Samples;Min_cycle;Max_cycle;Signal;HPM_P1;HPM_P2
2022/08/09 00:00:08;;;;;;;1.50;1.30;;;12.00;1.40;;;13.45;100.00;96010.35;649694;216;36583;-72
2022/08/09 00:02:50;;;;;;;1.12;1.05;;;11.90;1.40;;;13.53;100.00;96006.13;649950;216;31540;-72
2022/08/09 00:05:31;;;;;;;0.90;0.90;;;11.90;1.40;;;13.41;100.00;96010.00;646511;216;40656;-72
2022/08/09 00:08:13;;;;;;;2.87;1.77;;;11.90;1.40;;;13.30;100.00;96007.63;646857;216;36769;-70
2022/08/09 00:10:58;;;;;;;1.00;1.00;;;11.70;1.40;;;13.22;100.00;96009.39;644572;216;32141;-72
2022/08/09 00:13:40;;;;;;;1.80;1.30;;;11.60;1.40;;;13.20;100.00;96009.87;644748;216;31639;-72
2022/08/09 00:16:22;;;;;;;1.60;1.50;;;11.50;1.40;;;13.13;100.00;96014.23;637421;216;42341;-71
2022/08/09 00:19:04;;;;;;;1.30;1.20;;;11.50;1.40;;;13.10;100.00;96011.58;645800;212;31516;-72
2022/08/09 00:21:49;;;;;;;1.20;1.10;;;11.50;1.40;;;13.06;100.00;96010.95;645545;212;32388;-72
2022/08/09 00:24:30;;;;;;;1.40;1.30;;;11.50;1.40;;;13.06;100.00;96014.02;649026;212;31546;-72
2022/08/09 00:27:15;;;;;;;1.10;1.10;;;11.60;1.40;;;13.03;100.00;96007.16;645684;212;37366;-71
2022/08/09 00:29:57;;;;;;;1.50;1.10;;;11.50;1.40;;;13.14;100.00;96015.63;647016;216;31568;-71
2022/08/09 00:32:38;;;;;;;2.12;1.48;;;11.60;1.40;;;13.10;100.00;96010.64;649027;216;33801;-72
2022/08/09 00:35:54;;;;;;;1.40;1.30;;;11.60;1.40;;;13.02;100.00;96010.22;653185;216;31938;-71
2022/08/09 00:38:35;;;;;;;1.65;1.02;;;11.60;1.40;;;13.08;100.00;96016.36;646004;216;31644;-73
2022/08/09 00:41:19;;;;;;;1.40;1.30;;;11.50;1.40;;;13.06;100.00;96013.45;647721;216;35880;-71
2022/08/09 00:43:59;;;;;;;5.50;1.20;;;11.50;1.40;;;13.04;100.00;96010.08;651062;212;31659;-70
2022/08/09 00:46:44;;;;;;;1.50;1.40;;;11.50;1.40;;;12.96;100.00;96014.37;648246;212;36659;-71
2022/08/09 00:49:26;;;;;;;2.00;1.30;;;11.50;1.40;;;12.92;100.00;96015.71;649177;212;31712;-71
2022/08/09 00:52:07;;;;;;;2.10;1.35;;;11.40;1.40;;;12.88;100.00;96013.33;648409;216;31603;-71
2022/08/09 00:54:50;;;;;;;1.40;1.20;;;11.30;1.40;;;12.80;100.00;96011.91;623571;222;33527;-71
2022/08/09 00:57:31;;;;;;;1.98;1.83;;;11.30;1.40;;;12.72;100.00;96007.45;645541;216;32097;-71
2022/08/09 01:00:21;;;;;;;1.15;1.05;;;11.30;1.40;;;12.70;100.00;96012.00;648370;216;31557;-72
2022/08/09 01:05:41;;;;;;;1.42;1.33;;;11.10;1.40;;;12.60;100.00;96008.75;649089;212;32170;-71
2022/08/09 01:08:41;;;;;;;1.23;0.88;;;11.10;1.40;;;12.66;100.00;96008.94;649643;216;31684;-71
2022/08/09 01:11:40;;;;;;;6.93;1.10;;;11.10;1.40;;;12.70;100.00;96010.75;645632;216;31544;-71
2022/08/09 01:14:30;;;;;;;1.00;1.00;;;11.10;1.40;;;12.63;100.00;96012.50;646429;216;33157;-71
2022/08/09 01:17:11;;;;;;;3.20;1.70;;;11.10;1.40;;;12.61;100.00;96014.06;646794;216;31615;-72
2022/08/09 01:19:55;;;;;;;0.90;0.90;;;11.10;1.40;;;12.61;100.00;96014.55;647587;216;33153;-71
2022/08/09 01:22:47;;;;;;;1.25;1.10;;;11.10;1.40;;;12.61;100.00;96016.95;649545;216;31617;-71
2022/08/09 01:25:55;;;;;;;1.50;1.23;;;11.10;1.40;;;12.55;100.00;96016.59;646201;212;38713;-72
2022/08/09 01:28:36;;;;;;;1.10;0.70;;;11.00;1.40;;;12.54;100.00;96015.46;648899;212;32630;-71
2022/08/09 01:31:17;;;;;;;1.40;1.30;;;11.00;1.40;;;12.58;100.00;96014.83;647297;216;31490;-72
2022/08/09 01:36:00;;;;;;;0.90;0.90;;;11.10;1.40;;;12.45;100.00;96013.05;645617;216;31483;-72
2022/08/09 01:38:41;;;;;;;1.80;1.40;;;11.00;1.40;;;12.39;100.00;96012.84;649047;216;32344;-70
2022/08/09 01:41:26;;;;;;;1.30;1.20;;;10.90;1.40;;;12.31;100.00;96012.63;643697;212;31569;-70
2022/08/09 01:44:07;;;;;;;0.87;0.87;;;10.90;1.40;;;12.33;100.00;96011.94;647005;212;35289;-70
2022/08/09 01:46:52;;;;;;;0.85;0.85;;;10.90;1.40;;;12.23;100.00;96010.91;650544;216;31554;-70
2022/08/09 01:49:34;;;;;;;1.10;1.00;;;10.80;1.40;;;12.19;100.00;96013.76;650819;216;31572;-72
2022/08/09 01:52:15;;;;;;;0.63;0.60;;;10.70;1.40;;;12.14;100.00;96012.49;619422;226;32094;-71
2022/08/09 01:55:00;;;;;;;1.50;1.00;;;10.60;1.40;;;12.15;100.00;96013.83;648186;212;31516;-73
2022/08/09 01:57:42;;;;;;;3.90;1.40;;;10.60;1.40;;;12.21;100.00;96016.77;648793;212;31799;-71
2022/08/09 02:00:23;;;;;;;1.40;1.20;;;10.60;1.40;;;12.29;100.00;96011.36;646942;214;31535;-71
2022/08/09 02:03:05;;;;;;;1.60;1.37;;;10.70;1.40;;;12.30;100.00;96015.03;617732;223;32275;-71
2022/08/09 02:05:48;;;;;;;1.40;1.30;;;10.70;1.40;;;12.07;100.00;96016.67;648626;212;31547;-70
2022/08/09 02:08:28;;;;;;;1.20;1.10;;;10.50;1.40;;;12.00;100.00;96019.56;646614;212;32368;-70
2022/08/09 02:11:10;;;;;;;1.37;1.10;;;10.50;1.40;;;12.02;100.00;96019.64;652014;216;31668;-71
2022/08/09 02:13:52;;;;;;;1.25;1.00;;;10.50;1.40;;;12.00;100.00;96022.89;642045;215;41150;-71
2022/08/09 02:16:34;;;;;;;1.30;1.20;;;10.50;1.40;;;11.96;100.00;96021.22;617355;226;31850;-70
2022/08/09 02:19:15;;;;;;;3.10;1.10;;;10.50;1.40;;;12.05;100.00;96021.28;647527;216;31505;-70
2022/08/09 02:21:57;;;;;;;1.50;1.20;;;10.50;1.40;;;11.95;100.00;96022.16;650411;212;31698;-72
2022/08/09 02:24:38;;;;;;;0.73;0.73;;;10.50;1.40;;;11.93;100.00;96022.64;645174;212;31539;-71
2022/08/09 02:27:20;;;;;;;1.20;1.10;;;10.50;1.40;;;11.94;100.00;96021.20;649816;216;31532;-70
2022/08/09 02:32:36;;;;;;;1.50;1.40;;;10.40;1.40;;;11.87;100.00;96024.13;648310;216;32039;-71
2022/08/09 02:35:52;;;;;;;1.30;1.20;;;10.40;1.40;;;11.86;100.00;96022.03;646792;212;32228;-70
2022/08/09 02:38:36;;;;;;;0.80;0.70;;;10.40;1.40;;;11.83;100.00;96020.83;645037;216;42614;-70
2022/08/09 02:41:18;;;;;;;1.80;1.47;;;10.40;1.40;;;11.84;100.00;96021.78;644092;216;31505;-70
2022/08/09 02:43:59;;;;;;;1.30;1.20;;;10.40;1.40;;;11.85;100.00;96021.55;648529;216;31553;-70
2022/08/09 02:46:41;;;;;;;1.00;0.90;;;10.30;1.40;;;11.88;100.00;96021.13;646795;216;31501;-70
2022/08/09 02:49:26;;;;;;;1.00;1.00;;;10.30;1.40;;;11.73;100.00;96018.03;648694;212;31540;-72
2022/08/09 02:52:07;;;;;;;1.30;1.07;;;10.20;1.40;;;11.65;100.00;96014.61;647911;212;31497;-71
2022/08/09 02:54:49;;;;;;;1.60;1.50;;;10.10;1.40;;;11.56;100.00;96015.63;645766;216;32134;-69
2022/08/09 02:57:31;;;;;;;1.15;1.05;;;10.00;1.40;;;11.49;100.00;96016.63;646515;216;31496;-70
2022/08/09 03:00:14;;;;;;;1.20;0.93;;;10.00;1.40;;;11.50;100.00;96015.86;646598;216;31886;-72
2022/08/09 03:02:56;;;;;;;1.53;1.43;;;9.90;1.40;;;11.50;100.00;96017.50;645504;216;31544;-70
2022/08/09 03:05:38;;;;;;;1.00;0.90;;;10.00;1.40;;;11.47;100.00;96022.48;648258;216;42211;-71
2022/08/09 03:08:20;;;;;;;1.15;1.15;;;9.90;1.40;;;11.41;100.00;96024.70;649102;216;32003;-71
2022/08/09 03:11:05;;;;;;;1.12;1.10;;;9.90;1.40;;;11.37;100.00;96022.09;617466;222;32155;-71
2022/08/09 03:13:46;;;;;;;0.70;0.70;;;9.90;1.40;;;11.32;100.00;96021.28;651344;216;31585;-72
2022/08/09 03:16:28;;;;;;;0.90;0.80;;;9.80;1.40;;;11.27;100.00;96015.48;635790;216;42323;-71
2022/08/09 03:19:10;;;;;;;1.20;1.10;;;9.80;1.40;;;11.40;100.00;96015.31;649722;212;43310;-71
2022/08/09 03:21:52;;;;;;;1.60;1.20;;;10.00;1.40;;;11.45;100.00;96009.54;620280;226;33804;-71
2022/08/09 03:24:33;;;;;;;0.87;0.87;;;10.00;1.40;;;11.44;100.00;96008.46;649204;216;31642;-71
2022/08/09 03:27:15;;;;;;;0.90;0.73;;;10.10;1.40;;;11.45;100.00;96005.58;650674;216;32106;-71
2022/08/09 03:29:57;;;;;;;0.82;0.82;;;10.00;1.40;;;11.41;100.00;96005.80;646306;216;31497;-70
2022/08/09 03:32:39;;;;;;;1.30;1.20;;;10.00;1.40;;;11.52;100.00;96005.89;644680;216;31589;-70
2022/08/09 03:35:51;;;;;;;1.77;1.67;;;10.20;1.40;;;11.59;100.00;96010.25;645266;216;31602;-70
2022/08/09 03:38:33;;;;;;;1.60;1.50;;;10.20;1.40;;;11.60;100.00;96017.85;645951;216;32523;-70
2022/08/09 03:41:15;;;;;;;1.15;1.05;;;10.20;1.40;;;11.60;100.00;96018.11;647477;212;31648;-71
2022/08/09 03:43:56;;;;;;;1.60;1.50;;;10.20;1.40;;;11.62;100.00;96014.33;645826;216;34445;-71
2022/08/09 03:46:40;;;;;;;2.80;1.10;;;10.10;1.40;;;11.59;100.00;96017.21;630484;222;32162;-72
2022/08/09 03:49:22;;;;;;;1.50;1.40;;;10.10;1.40;;;11.53;100.00;96017.95;647359;212;42184;-71
2022/08/09 03:52:06;;;;;;;1.83;1.50;;;10.10;1.40;;;11.49;100.00;96016.91;617488;225;42539;-71
2022/08/09 03:54:47;;;;;;;1.10;0.93;;;10.00;1.40;;;11.49;100.00;96020.28;646886;216;31504;-70
2022/08/09 03:57:29;;;;;;;2.10;1.70;;;10.00;1.40;;;11.54;100.00;96025.92;646240;216;35083;-71
2022/08/09 04:00:12;;;;;;;2.12;1.60;;;10.00;1.40;;;11.54;100.00;96028.27;646905;212;31613;-70
2022/08/09 04:02:53;;;;;;;1.23;1.13;;;10.10;1.40;;;11.56;100.00;96027.69;621374;224;31833;-70
2022/08/09 04:05:35;;;;;;;2.43;1.87;;;10.10;1.40;;;11.54;100.00;96032.11;645714;216;42846;-70
2022/08/09 04:08:17;;;;;;;1.10;0.90;;;10.10;1.40;;;11.27;100.00;96034.11;649450;212;31564;-73
2022/08/09 04:11:02;;;;;;;2.90;1.90;;;9.80;1.40;;;11.19;100.00;96038.58;645665;212;31616;-70
2022/08/09 04:13:43;;;;;;;1.67;1.57;;;9.60;1.40;;;11.10;100.00;96040.25;648338;212;31545;-70
2022/08/09 04:16:26;;;;;;;1.93;1.70;;;9.60;1.40;;;11.11;100.00;96039.16;636474;216;32251;-71
2022/08/09 04:19:07;;;;;;;1.43;1.33;;;9.50;1.40;;;11.05;100.00;96040.59;647026;216;32000;-71
2022/08/09 04:21:52;;;;;;;2.47;1.20;;;9.50;1.40;;;11.08;100.00;96041.70;647354;216;31794;-71
2022/08/09 04:24:34;;;;;;;1.27;1.20;;;9.50;1.40;;;11.11;100.00;96040.61;644528;216;31553;-70
2022/08/09 04:27:16;;;;;;;2.20;1.60;;;9.70;1.40;;;11.20;100.00;96048.81;646817;216;42121;-70
2022/08/09 04:32:37;;;;;;;3.30;1.03;;;9.80;1.40;;;11.42;100.00;96048.45;646185;212;42783;-71
2022/08/09 04:35:51;;;;;;;2.60;1.58;;;9.90;1.40;;;11.55;100.00;96049.75;647302;212;31542;-71
2022/08/09 04:38:32;;;;;;;1.13;1.13;;;10.10;1.40;;;11.46;100.00;96054.54;617983;225;42671;-71
2022/08/09 04:41:17;;;;;;;1.23;1.13;;;10.00;1.40;;;11.58;100.00;96054.11;646833;216;42197;-71
2022/08/09 04:43:59;;;;;;;2.10;1.30;;;10.00;1.40;;;11.73;100.00;96057.16;652096;212;42760;-72
2022/08/09 04:46:41;;;;;;;1.40;1.30;;;10.20;1.40;;;11.70;100.00;96057.39;648043;216;42203;-71
2022/08/09 04:49:22;;;;;;;8.90;1.60;;;10.20;1.40;;;11.69;100.00;96053.87;648159;216;42450;-71
2022/08/09 04:53:14;;;;;;;1.70;1.40;;;10.20;1.40;;;11.77;100.00;96058.17;621468;222;31922;-73
2022/08/09 04:55:55;;;;;;;1.90;1.70;;;10.40;1.40;;;11.94;100.00;96059.02;645714;216;31672;-72
2022/08/09 04:58:37;;;;;;;1.50;1.40;;;10.50;1.40;;;12.08;100.00;96060.80;646690;216;32161;-72
2022/08/09 05:01:19;;;;;;;2.10;1.87;;;10.60;1.40;;;12.21;100.00;96065.14;645333;216;31572;-70
2022/08/09 05:04:01;;;;;;;1.40;1.23;;;10.70;1.40;;;12.40;100.00;96065.26;647650;216;32178;-71
2022/08/09 05:06:43;;;;;;;1.13;1.03;;;11.00;1.40;;;12.52;100.00;96068.43;644854;216;31552;-71
2022/08/09 05:09:25;;;;;;;2.80;1.50;;;11.10;1.40;;;12.63;100.00;96067.08;647551;216;31562;-71
2022/08/09 05:12:06;;;;;;;1.97;1.87;;;11.20;1.40;;;12.64;100.00;96073.86;646400;216;32110;-72
2022/08/09 05:14:48;;;;;;;1.37;1.20;;;11.20;1.40;;;12.71;100.00;96067.27;648937;216;31741;-71
2022/08/09 05:17:33;;;;;;;1.17;1.00;;;11.30;1.40;;;12.79;100.00;96069.07;648518;212;31577;-71
2022/08/09 05:20:15;;;;;;;1.60;1.50;;;11.30;1.40;;;12.91;100.00;96069.56;650374;216;32377;-71
2022/08/09 05:22:56;;;;;;;3.40;1.90;;;11.40;1.40;;;13.04;100.00;96068.92;643815;212;32802;-71
2022/08/09 05:28:14;;;;;;;2.70;1.60;;;11.80;1.40;;;13.48;100.00;96076.48;648998;216;31599;-71
2022/08/09 05:30:56;;;;;;;1.90;1.80;;;12.10;1.40;;;13.63;100.00;96079.30;647529;216;31562;-72
2022/08/09 05:35:51;;;;;;;2.62;2.42;;;12.50;1.40;;;13.92;100.00;96079.07;650039;216;31597;-71
2022/08/09 05:38:33;;;;;;;2.30;2.10;;;12.60;1.40;;;14.10;100.00;96079.30;646556;216;33143;-72
2022/08/09 05:41:19;;;;;;;6.53;2.25;;;12.70;1.40;;;14.18;100.00;96077.40;603769;233;32642;-70
2022/08/09 05:46:38;;;;;;;6.37;2.10;;;12.90;1.40;;;14.35;100.00;96078.23;647238;216;42192;-70
2022/08/09 05:49:20;;;;;;;2.10;1.90;;;13.00;1.40;;;14.50;100.00;96076.61;620515;222;42591;-71
2022/08/09 05:52:05;;;;;;;2.92;2.60;;;13.10;1.40;;;14.65;100.00;96077.37;648152;216;45841;-72
2022/08/09 05:54:46;;;;;;;3.62;2.90;;;13.30;1.40;;;14.84;100.00;96080.58;644277;212;42205;-71
2022/08/09 05:57:28;;;;;;;2.20;2.00;;;13.40;1.40;;;15.01;100.00;96080.67;647499;216;31493;-72
2022/08/09 06:00:12;;;;;;;2.35;2.05;;;13.60;1.40;;;15.19;100.00;96086.44;646813;216;42195;-71
2022/08/09 06:02:53;;;;;;;4.22;2.33;;;13.70;1.40;;;15.31;100.00;96082.19;648528;212;42265;-71
2022/08/09 06:05:37;;;;;;;5.32;2.50;;;13.80;1.40;;;15.42;100.00;96083.55;645676;216;31574;-71
2022/08/09 06:08:19;;;;;;;2.95;2.53;;;13.90;1.40;;;15.64;100.00;96083.23;646487;216;31573;-71
2022/08/09 06:11:01;;;;;;;2.47;1.90;;;14.10;1.40;;;15.80;100.00;96092.08;650129;212;31975;-71
2022/08/09 06:13:42;;;;;;;4.28;2.87;;;14.50;1.40;;;16.06;100.00;96092.81;616519;222;31913;-72
2022/08/09 06:16:28;;;;;;;2.40;2.08;;;14.90;1.40;;;16.45;100.00;96091.65;637526;212;31755;-70
2022/08/09 06:19:09;;;;;;;2.45;2.25;;;15.40;1.40;;;16.67;100.00;96088.05;646330;216;31657;-69
2022/08/09 06:24:25;;;;;;;3.58;1.95;;;15.70;1.40;;;16.95;100.00;96093.10;645412;212;31574;-70
2022/08/09 06:27:07;;;;;;;2.00;1.80;;;15.80;1.40;;;17.14;100.00;96094.14;642839;216;32097;-70
2022/08/09 06:29:52;;;;;;;2.80;2.20;;;16.00;1.40;;;17.33;100.00;96089.06;648069;212;32195;-71
2022/08/09 06:32:33;;;;;;;1.98;1.87;;;16.10;1.40;;;17.66;100.00;96087.33;646571;216;31550;-70
2022/08/09 06:35:52;;;;;;;2.60;2.40;;;16.60;1.40;;;17.77;100.00;96088.40;647964;216;31575;-69
2022/08/09 06:38:34;;;;;;;1.98;1.87;;;16.60;1.40;;;17.99;100.00;96084.83;646821;216;42774;-70
2022/08/09 06:41:17;;;;;;;2.70;1.80;;;16.70;1.40;;;18.25;100.00;96089.86;627107;221;31987;-70
2022/08/09 06:44:01;;;;;;;1.80;1.70;;;17.10;1.40;;;18.61;100.00;96096.35;645661;216;31652;-70
2022/08/09 06:46:44;;;;;;;2.20;1.92;;;17.60;1.40;;;18.81;100.00;96098.39;642823;217;31634;-69
2022/08/09 06:49:25;;;;;;;5.18;2.37;;;17.80;1.40;;;19.15;100.00;96095.11;646184;216;32084;-69
2022/08/09 06:52:07;;;;;;;1.70;1.60;;;18.20;1.40;;;19.25;100.00;96092.63;645942;212;31502;-70
2022/08/09 06:54:49;;;;;;;2.17;1.73;;;18.30;1.40;;;19.36;100.00;96097.13;648080;212;31595;-70
2022/08/09 06:57:31;;;;;;;1.40;1.30;;;18.40;1.40;;;19.53;100.00;96099.52;648152;216;31522;-71
2022/08/09 07:00:16;;;;;;;1.85;1.67;;;18.50;1.40;;;19.70;100.00;96097.39;617776;226;31889;-70
2022/08/09 07:02:58;;;;;;;1.73;1.62;;;18.70;1.40;;;19.77;100.00;96102.80;646874;216;31560;-71
2022/08/09 07:05:39;;;;;;;1.77;1.67;;;18.70;1.40;;;19.87;100.00;96101.66;647304;216;31719;-70
2022/08/09 07:08:21;;;;;;;2.70;2.10;;;18.80;1.40;;;20.05;100.00;96102.58;646133;212;31587;-70
2022/08/09 07:11:03;;;;;;;4.57;1.87;;;19.10;1.40;;;20.14;100.00;96101.83;645736;212;31539;-71
2022/08/09 07:13:45;;;;;;;2.72;1.90;;;19.20;1.40;;;20.30;100.00;96105.94;646045;212;31536;-71
2022/08/09 07:16:26;;;;;;;2.42;1.65;;;19.30;1.40;;;20.40;100.00;96110.00;636566;212;43059;-70
2022/08/09 07:19:10;;;;;;;2.80;2.33;;;19.50;1.40;;;20.52;100.00;96111.34;647422;216;31597;-69
2022/08/09 07:21:50;;;;;;;1.58;1.48;;;19.60;1.40;;;20.66;100.00;96112.48;646591;216;31556;-70
2022/08/09 07:24:32;;;;;;;2.27;2.07;;;19.70;1.40;;;20.89;100.00;96107.98;647488;212;31712;-70
2022/08/09 07:27:14;;;;;;;1.63;1.53;;;19.90;1.40;;;21.04;100.00;96112.93;645864;212;31624;-69
2022/08/09 07:29:56;;;;;;;2.20;1.90;;;20.10;1.40;;;21.13;100.00;96110.09;645821;212;31577;-70
2022/08/09 07:32:38;;;;;;;2.65;2.33;;;20.20;1.40;;;21.12;99.23;96111.86;646159;212;31537;-70
2022/08/09 07:35:51;;;;;;;2.30;1.83;;;20.20;1.40;;;21.27;98.08;96110.03;619218;226;31883;-71
2022/08/09 07:38:33;;;;;;;4.00;2.40;;;20.30;1.40;;;21.45;98.00;96113.02;645970;216;31649;-70
2022/08/09 07:41:14;;;;;;;1.67;1.58;;;20.50;1.40;;;21.68;98.10;96111.70;645149;212;31577;-70
2022/08/09 07:43:56;;;;;;;1.40;1.30;;;20.70;1.40;;;21.68;93.35;96115.93;646099;216;31587;-69
2022/08/09 07:46:38;;;;;;;1.70;1.60;;;20.70;1.40;;;21.92;93.49;96119.73;646491;212;31546;-70
2022/08/09 07:49:20;;;;;;;2.05;1.85;;;20.90;1.40;;;22.12;93.77;96121.20;647063;212;31938;-70
2022/08/09 07:52:02;;;;;;;1.50;1.40;;;21.00;1.40;;;22.27;94.09;96120.16;646834;216;31531;-70
2022/08/09 07:54:44;;;;;;;2.10;1.60;;;21.20;1.40;;;22.22;92.54;96117.02;646216;216;32124;-69
2022/08/09 07:57:29;;;;;;;1.60;1.50;;;21.30;1.40;;;22.47;90.32;96118.80;645710;212;31607;-70
2022/08/09 08:00:10;;;;;;;1.37;1.27;;;21.40;1.40;;;22.75;89.44;96122.84;646701;212;32078;-71
2022/08/09 08:02:55;;;;;;;1.60;1.50;;;21.60;1.40;;;22.49;86.47;96121.19;646830;216;31526;-70
2022/08/09 08:05:37;;;;;;;1.80;1.60;;;21.50;1.40;;;22.71;86.51;96121.27;647528;216;31788;-71
2022/08/09 08:08:19;;;;;;;1.30;1.20;;;21.70;1.40;;;22.86;83.51;96119.86;620612;226;31920;-70
2022/08/09 08:11:00;;;;;;;1.70;1.60;;;21.90;1.40;;;23.10;85.90;96123.52;647362;212;31549;-69
2022/08/09 08:13:45;;;;;;;1.48;1.10;;;22.10;1.40;;;23.39;82.11;96124.13;644793;216;31557;-70
2022/08/09 08:16:27;;;;;;;1.50;1.30;;;22.30;1.40;;;23.36;77.10;96120.42;647397;216;31534;-70
2022/08/09 08:19:09;;;;;;;1.30;1.20;;;22.40;1.40;;;23.30;77.67;96122.91;648214;216;31563;-69
2022/08/09 08:21:52;;;;;;;2.50;1.50;;;22.30;1.40;;;23.64;79.36;96118.49;647257;212;31540;-71
2022/08/09 08:24:33;;;;;;;3.80;1.27;;;22.60;1.40;;;23.59;71.76;96126.65;646630;212;31564;-69
2022/08/09 08:27:15;;;;;;;1.67;1.30;;;22.70;1.40;;;23.71;73.12;96117.48;645558;212;31592;-69
2022/08/09 08:29:57;;;;;;;1.83;1.23;;;22.70;1.40;;;24.12;77.18;96114.86;646421;216;31516;-69
2022/08/09 08:32:40;;;;;;;1.62;1.52;;;23.00;1.40;;;24.26;75.11;96115.28;647098;216;31487;-70
2022/08/09 08:35:51;;;;;;;1.30;1.20;;;23.20;1.40;;;24.47;72.51;96122.04;619674;226;31985;-69
2022/08/09 08:38:32;;;;;;;1.83;1.50;;;23.30;1.40;;;24.54;71.47;96115.02;647636;216;31503;-70
2022/08/09 08:41:14;;;;;;;1.30;1.20;;;23.30;1.40;;;24.74;71.25;96121.19;646146;216;42241;-69
2022/08/09 08:43:56;;;;;;;2.80;1.20;;;23.70;1.40;;;24.63;68.40;96117.30;646051;216;42145;-70
2022/08/09 08:46:38;;;;;;;1.20;1.17;;;23.60;1.40;;;24.87;68.17;96126.80;645403;212;42491;-70
2022/08/09 08:49:20;;;;;;;2.70;0.95;;;23.80;1.40;;;25.01;67.84;96128.37;647210;216;42176;-69
2022/08/09 08:52:01;;;;;;;1.92;1.70;;;23.80;1.40;;;24.94;69.68;96120.45;646843;212;31497;-70
2022/08/09 08:54:41;;;;;;;1.40;1.20;;;23.90;1.40;;;25.09;67.64;96122.19;646400;216;31505;-70
2022/08/09 08:57:23;;;;;;;1.15;1.05;;;24.10;1.40;;;25.56;68.01;96121.27;647037;216;31549;-70
2022/08/09 09:00:06;;;;;;;1.48;1.10;;;24.30;1.40;;;25.80;67.00;96122.77;645527;212;32371;-70
2022/08/09 09:02:49;;;;;;;1.92;1.10;;;24.40;1.40;;;25.88;65.99;96115.48;646191;216;31555;-70
2022/08/09 09:05:33;;;;;;;1.10;1.00;;;24.20;1.40;;;25.58;63.50;96122.36;646711;216;31515;-70
2022/08/09 09:08:15;;;;;;;1.17;1.00;;;24.40;1.40;;;26.14;63.27;96124.68;647236;216;32173;-71
2022/08/09 09:10:57;;;;;;;1.90;1.30;;;24.90;1.40;;;26.16;60.70;96118.67;647235;216;31628;-70
2022/08/09 09:13:41;;;;;;;1.40;1.30;;;25.10;1.40;;;25.94;60.58;96125.72;645971;216;31559;-70
2022/08/09 09:16:23;;;;;;;1.20;1.10;;;24.90;1.40;;;27.15;61.71;96116.91;636296;216;31684;-70
2022/08/09 09:19:06;;;;;;;1.27;1.17;;;26.00;1.40;;;27.97;56.27;96111.02;646434;216;31529;-70
2022/08/09 09:22:00;;;;;;;1.55;1.45;;;29.20;1.40;;;28.68;52.24;96119.32;647670;212;31749;-70
2022/08/09 09:24:44;;;;;;;0.82;0.80;;;29.80;1.40;;;28.85;53.16;96109.40;645729;212;31863;-70
2022/08/09 09:27:26;;;;;;;1.75;1.10;;;30.10;1.40;;;30.61;51.57;96113.03;646737;212;35427;-71
2022/08/09 09:30:10;;;;;;;1.97;1.10;;;31.30;1.40;;;31.52;45.91;96109.55;646716;216;31613;-70
2022/08/09 09:33:00;;;;;;;1.40;1.30;;;31.50;1.40;;;28.15;48.88;96109.25;646484;216;32389;-70
2022/08/09 09:35:55;;;;;;;1.20;1.10;;;29.20;1.40;;;32.59;48.02;96101.33;647516;216;31602;-70
2022/08/09 09:38:47;;;;;;;0.90;0.90;;;31.40;1.40;;;31.59;47.50;96111.34;646842;216;31547;-71
2022/08/09 09:41:29;;;;;;;1.12;1.10;;;31.60;1.40;;;32.33;43.30;96109.72;646950;212;32118;-71
2022/08/09 09:44:12;;;;;;;1.05;0.93;;;31.90;1.40;;;34.47;42.51;96107.08;644402;216;31744;-70
2022/08/09 09:46:55;;;;;;;2.10;1.40;;;32.80;1.40;;;34.01;41.19;96108.10;645705;216;31703;-71
2022/08/09 09:49:38;;;;;;;1.17;1.10;;;32.60;1.40;;;34.43;38.39;96106.47;646023;216;31794;-71
2022/08/09 09:52:19;;;;;;;1.40;1.30;;;32.40;1.40;;;33.70;39.64;96104.19;646829;216;32049;-71
2022/08/09 09:55:03;;;;;;;1.60;1.30;;;31.70;1.40;;;33.26;38.42;96111.03;647234;212;31580;-72
2022/08/09 09:57:45;;;;;;;1.60;0.93;;;31.50;1.40;;;32.04;45.04;96113.58;618696;222;42690;-71
2022/08/09 10:00:27;;;;;;;3.60;1.20;;;31.20;1.40;;;35.43;40.63;96103.14;645711;212;31520;-71
2022/08/09 10:03:09;;;;;;;2.25;1.50;;;33.30;1.40;;;33.80;41.69;96108.53;647574;216;31568;-71
2022/08/09 10:05:56;;;;;;;1.73;1.25;;;32.50;1.40;;;35.23;41.03;96104.12;647167;216;31792;-73
2022/08/09 10:08:41;;;;;;;2.00;1.10;;;32.90;1.40;;;36.64;41.11;96101.72;647094;216;31535;-71
2022/08/09 10:11:23;;;;;;;1.13;1.03;;;33.50;1.40;;;34.88;40.37;96107.64;647380;216;31743;-70
2022/08/09 10:14:04;;;;;;;1.20;1.10;;;33.20;1.40;;;37.97;36.69;96093.55;646523;216;31552;-71
2022/08/09 10:16:46;;;;;;;2.10;1.10;;;33.90;1.40;;;37.68;35.38;96095.64;633756;216;31660;-71
2022/08/09 10:19:34;;;;;;;1.20;1.10;;;34.50;1.40;;;32.90;37.65;96103.49;647119;216;31585;-71
2022/08/09 10:22:17;;;;;;;1.30;0.93;;;32.00;1.40;;;35.68;34.80;96098.51;646222;216;31609;-71
2022/08/09 10:24:59;;;;;;;1.30;1.20;;;33.10;1.40;;;37.58;36.33;96096.33;646484;216;31633;-71
2022/08/09 10:27:42;;;;;;;1.20;1.10;;;34.20;1.40;;;36.07;36.08;96104.00;647188;216;32090;-71
2022/08/09 10:30:24;;;;;;;1.77;1.10;;;33.30;1.40;;;32.41;37.92;96103.19;644969;216;31568;-71
2022/08/09 10:35:51;;;;;;;1.30;1.20;;;33.30;1.40;;;36.22;35.57;96091.68;646226;215;31591;-71
2022/08/09 10:38:33;;;;;;;2.30;1.00;;;33.50;1.40;;;37.79;33.78;96090.73;647419;216;31474;-71
2022/08/09 10:41:14;;;;;;;1.40;1.10;;;33.80;1.40;;;38.56;33.72;96093.71;646777;216;31557;-71
2022/08/09 10:43:56;;;;;;;2.47;0.93;;;33.80;1.40;;;38.23;34.48;96085.81;646686;216;31522;-71
2022/08/09 10:47:19;;;;;;;2.47;1.10;;;34.70;1.40;;;37.28;33.72;96088.84;645471;215;31510;-69
2022/08/09 10:50:19;;;;;;;1.50;1.10;;;33.40;1.40;;;39.35;31.13;96084.34;646865;216;31498;-71
2022/08/09 10:53:04;;;;;;;1.10;1.00;;;34.40;1.40;;;37.20;33.66;96085.21;645777;216;31494;-69
2022/08/09 10:55:47;;;;;;;2.40;1.30;;;33.30;1.40;;;38.59;32.89;96082.00;646675;216;31506;-71
2022/08/09 10:58:29;;;;;;;1.35;1.25;;;34.10;1.40;;;35.84;34.37;96096.22;646566;212;31746;-71
2022/08/09 11:01:40;;;;;;;2.70;1.30;;;31.90;1.40;;;33.77;37.17;96085.91;646894;212;31564;-71
2022/08/09 11:04:22;;;;;;;1.80;1.30;;;31.90;1.40;;;37.90;33.47;96074.66;645663;212;31656;-70
2022/08/09 11:07:25;;;;;;;2.80;1.20;;;33.90;1.40;;;37.26;34.05;96076.58;646210;216;31535;-71
2022/08/09 11:10:07;;;;;;;1.10;1.10;;;34.30;1.40;;;36.72;32.83;96081.69;646996;216;31865;-72
2022/08/09 11:13:15;;;;;;;1.77;1.40;;;33.40;1.40;;;34.92;35.36;96086.70;647179;216;31586;-71
2022/08/09 11:16:08;;;;;;;1.80;1.70;;;30.70;1.40;;;34.38;37.53;96085.78;638067;212;31773;-71
2022/08/09 11:18:51;;;;;;;1.47;1.37;;;32.20;1.40;;;37.26;33.59;96081.31;645910;212;34654;-71
2022/08/09 11:21:51;;;;;;;2.00;1.23;;;33.70;1.40;;;39.43;32.40;96075.41;618749;222;32021;-70
2022/08/09 11:25:03;;;;;;;2.53;1.40;;;34.30;1.40;;;40.54;31.08;96073.44;646493;213;31586;-72
2022/08/09 11:27:44;;;;;;;3.20;1.40;;;34.20;1.40;;;35.93;35.20;96088.79;631470;222;32307;-72
2022/08/09 11:30:35;;;;;;;5.25;1.75;;;32.60;1.40;;;31.83;37.63;96099.49;643012;213;31596;-71
2022/08/09 11:35:56;;;;;;;1.60;1.50;;;31.20;1.40;;;33.62;37.88;96089.51;646880;212;31562;-71
2022/08/09 11:38:39;;;;;;;1.45;1.35;;;31.40;1.40;;;37.64;33.81;96084.74;645586;216;32154;-70
2022/08/09 11:41:27;;;;;;;1.58;1.17;;;34.10;1.40;;;40.54;32.11;96075.47;645714;216;31554;-71
2022/08/09 11:44:06;;;;;;;1.80;1.33;;;35.80;1.40;;;39.57;33.13;96077.89;647602;216;31992;-71
2022/08/09 11:46:52;;;;;;;1.40;1.30;;;34.20;1.40;;;39.57;30.31;96077.74;646178;216;31617;-70
2022/08/09 11:49:57;;;;;;;1.80;1.70;;;33.40;1.40;;;36.16;33.58;96094.64;645937;212;32244;-71
2022/08/09 11:58:01;;;;;;;2.05;1.45;;;31.60;1.40;;;34.61;36.19;96087.25;646666;216;32148;-71
2022/08/09 12:03:19;;;;;;;3.75;2.10;;;32.70;1.40;;;38.07;33.48;96076.42;646392;216;32181;-71
2022/08/09 12:06:01;;;;;;;2.83;1.85;;;33.50;1.40;;;39.49;30.65;96070.02;646286;216;31584;-72
2022/08/09 12:08:45;;;;;;;2.07;1.43;;;33.60;1.40;;;33.73;35.18;96077.84;646356;216;31548;-71